Helton, North Carolina
Current Conditions -  °F | °C
As of 5:35 AM on Saturday 22 Nov 2014 (Local Time) from KGEV Reporting Station
Clear Clear  
Wind Chill: 28°   Ceiling: Unl
Heat Index: 28°   Visibility: 10mi
Dew Point:   Wind: 0mph
Humidity: 38%   Direction: NA
Pressure: 30.41"   Gusts: NA
Location:  36.5447°N, 81.4342°W
Report Text: KGEV 221035Z AUTO 00000KT 10SM CLR M02/M15 A3041 RMK AO2 T10251150
Loading
Personal Weather Stations






























Interactive Weather Map New forecast layout! Learn more

10-Day Weather Forecast

Advertisements
Track Severe Weather on mobile